sensor_id;sensor_type;location;lat;lon;timestamp;P1;durP1;ratioP1;P2;durP2;ratioP2
12798;SDS011;19250;42.646;26.980;2023-03-01T00:00:20;0.10;;;0.10;;
12798;SDS011;19250;42.646;26.980;2023-03-01T00:02:47;0.10;;;0.10;;
12798;SDS011;19250;42.646;26.980;2023-03-01T00:05:14;0.20;;;0.20;;
12798;SDS011;19250;42.646;26.980;2023-03-01T00:07:42;0.20;;;0.20;;
12798;SDS011;19250;42.646;26.980;2023-03-01T00:10:10;0.10;;;0.10;;
12798;SDS011;19250;42.646;26.980;2023-03-01T00:12:37;0.10;;;0.10;;
12798;SDS011;19250;42.646;26.980;2023-03-01T00:15:07;5.40;;;1.90;;
12798;SDS011;19250;42.646;26.980;2023-03-01T00:17:35;0.47;;;0.47;;
12798;SDS011;19250;42.646;26.980;2023-03-01T00:20:02;0.10;;;0.10;;
12798;SDS011;19250;42.646;26.980;2023-03-01T00:22:33;0.10;;;0.10;;
12798;SDS011;19250;42.646;26.980;2023-03-01T00:25:00;0.10;;;0.10;;
12798;SDS011;19250;42.646;26.980;2023-03-01T00:27:27;0.10;;;0.10;;
12798;SDS011;19250;42.646;26.980;2023-03-01T00:29:54;0.10;;;0.10;;
12798;SDS011;19250;42.646;26.980;2023-03-01T00:32:23;0.10;;;0.10;;
12798;SDS011;19250;42.646;26.980;2023-03-01T00:34:51;0.55;;;0.55;;
12798;SDS011;19250;42.646;26.980;2023-03-01T00:37:20;0.10;;;0.10;;
12798;SDS011;19250;42.646;26.980;2023-03-01T00:39:48;0.13;;;0.13;;
12798;SDS011;19250;42.646;26.980;2023-03-01T00:42:15;0.10;;;0.10;;
12798;SDS011;19250;42.646;26.980;2023-03-01T00:44:43;0.20;;;0.20;;
12798;SDS011;19250;42.646;26.980;2023-03-01T00:47:10;0.10;;;0.10;;
12798;SDS011;19250;42.646;26.980;2023-03-01T00:49:38;0.10;;;0.10;;
12798;SDS011;19250;42.646;26.980;2023-03-01T00:52:06;0.10;;;0.10;;
12798;SDS011;19250;42.646;26.980;2023-03-01T00:54:33;0.20;;;0.20;;
12798;SDS011;19250;42.646;26.980;2023-03-01T00:57:00;0.10;;;0.10;;
12798;SDS011;19250;42.646;26.980;2023-03-01T00:59:28;0.10;;;0.10;;
12798;SDS011;19250;42.646;26.980;2023-03-01T01:01:55;0.10;;;0.10;;
12798;SDS011;19250;42.646;26.980;2023-03-01T01:04:22;0.10;;;0.10;;
12798;SDS011;19250;42.646;26.980;2023-03-01T01:06:51;0.10;;;0.10;;
12798;SDS011;19250;42.646;26.980;2023-03-01T01:09:18;0.10;;;0.10;;
12798;SDS011;19250;42.646;26.980;2023-03-01T01:11:45;0.10;;;0.10;;
12798;SDS011;19250;42.646;26.980;2023-03-01T01:14:14;0.20;;;0.20;;
12798;SDS011;19250;42.646;26.980;2023-03-01T01:16:42;0.10;;;0.10;;
12798;SDS011;19250;42.646;26.980;2023-03-01T01:19:10;0.80;;;0.80;;
12798;SDS011;19250;42.646;26.980;2023-03-01T01:21:38;0.20;;;0.20;;
12798;SDS011;19250;42.646;26.980;2023-03-01T01:24:09;0.20;;;0.20;;
12798;SDS011;19250;42.646;26.980;2023-03-01T01:26:37;0.50;;;0.50;;
12798;SDS011;19250;42.646;26.980;2023-03-01T01:29:05;0.10;;;0.10;;
12798;SDS011;19250;42.646;26.980;2023-03-01T01:34:53;0.30;;;0.30;;
12798;SDS011;19250;42.646;26.980;2023-03-01T01:37:21;0.30;;;0.30;;
12798;SDS011;19250;42.646;26.980;2023-03-01T01:39:56;0.70;;;0.70;;
12798;SDS011;19250;42.646;26.980;2023-03-01T01:42:23;0.20;;;0.20;;
12798;SDS011;19250;42.646;26.980;2023-03-01T01:47:59;0.80;;;0.80;;
12798;SDS011;19250;42.646;26.980;2023-03-01T01:50:31;0.40;;;0.40;;
12798;SDS011;19250;42.646;26.980;2023-03-01T01:53:04;0.20;;;0.20;;
12798;SDS011;19250;42.646;26.980;2023-03-01T01:55:36;1.20;;;1.20;;
12798;SDS011;19250;42.646;26.980;2023-03-01T01:58:08;1.20;;;1.10;;
12798;SDS011;19250;42.646;26.980;2023-03-01T02:00:37;0.10;;;0.10;;
12798;SDS011;19250;42.646;26.980;2023-03-01T02:03:06;0.20;;;0.20;;
12798;SDS011;19250;42.646;26.980;2023-03-01T02:05:38;0.10;;;0.10;;
12798;SDS011;19250;42.646;26.980;2023-03-01T02:08:11;0.10;;;0.10;;
12798;SDS011;19250;42.646;26.980;2023-03-01T02:10:42;0.10;;;0.10;;
12798;SDS011;19250;42.646;26.980;2023-03-01T02:13:10;0.10;;;0.10;;
12798;SDS011;19250;42.646;26.980;2023-03-01T02:15:39;0.20;;;0.20;;
12798;SDS011;19250;42.646;26.980;2023-03-01T02:18:09;0.10;;;0.10;;
12798;SDS011;19250;42.646;26.980;2023-03-01T02:20:43;0.10;;;0.10;;
12798;SDS011;19250;42.646;26.980;2023-03-01T02:23:21;0.10;;;0.10;;
12798;SDS011;19250;42.646;26.980;2023-03-01T02:25:52;0.55;;;0.55;;
12798;SDS011;19250;42.646;26.980;2023-03-01T02:28:30;0.10;;;0.10;;
12798;SDS011;19250;42.646;26.980;2023-03-01T02:30:59;0.10;;;0.10;;
12798;SDS011;19250;42.646;26.980;2023-03-01T02:33:47;0.28;;;0.28;;
12798;SDS011;19250;42.646;26.980;2023-03-01T02:36:15;0.27;;;0.27;;
12798;SDS011;19250;42.646;26.980;2023-03-01T02:38:45;0.10;;;0.10;;
12798;SDS011;19250;42.646;26.980;2023-03-01T02:41:14;0.47;;;0.47;;
12798;SDS011;19250;42.646;26.980;2023-03-01T02:43:44;0.35;;;0.35;;
12798;SDS011;19250;42.646;26.980;2023-03-01T02:46:14;0.10;;;0.10;;
12798;SDS011;19250;42.646;26.980;2023-03-01T02:48:43;0.30;;;0.30;;
12798;SDS011;19250;42.646;26.980;2023-03-01T02:51:18;0.10;;;0.10;;
12798;SDS011;19250;42.646;26.980;2023-03-01T02:54:01;0.17;;;0.17;;
12798;SDS011;19250;42.646;26.980;2023-03-01T02:56:37;0.10;;;0.10;;
12798;SDS011;19250;42.646;26.980;2023-03-01T02:59:06;0.20;;;0.20;;
12798;SDS011;19250;42.646;26.980;2023-03-01T03:01:35;0.70;;;0.70;;
12798;SDS011;19250;42.646;26.980;2023-03-01T03:04:05;0.10;;;0.10;;
12798;SDS011;19250;42.646;26.980;2023-03-01T03:06:35;0.45;;;0.45;;
12798;SDS011;19250;42.646;26.980;2023-03-01T03:09:02;0.10;;;0.10;;
12798;SDS011;19250;42.646;26.980;2023-03-01T03:11:30;0.13;;;0.13;;
12798;SDS011;19250;42.646;26.980;2023-03-01T03:13:57;0.30;;;0.30;;
12798;SDS011;19250;42.646;26.980;2023-03-01T03:16:26;0.10;;;0.10;;
12798;SDS011;19250;42.646;26.980;2023-03-01T03:18:54;0.10;;;0.10;;
12798;SDS011;19250;42.646;26.980;2023-03-01T03:21:30;0.10;;;0.10;;
12798;SDS011;19250;42.646;26.980;2023-03-01T03:23:57;1.00;;;1.00;;
12798;SDS011;19250;42.646;26.980;2023-03-01T03:26:24;0.10;;;0.10;;
12798;SDS011;19250;42.646;26.980;2023-03-01T03:28:52;0.10;;;0.10;;
12798;SDS011;19250;42.646;26.980;2023-03-01T03:31:19;0.10;;;0.10;;
12798;SDS011;19250;42.646;26.980;2023-03-01T03:33:48;0.20;;;0.20;;
12798;SDS011;19250;42.646;26.980;2023-03-01T03:36:16;0.20;;;0.20;;
12798;SDS011;19250;42.646;26.980;2023-03-01T03:38:44;8.30;;;1.10;;
12798;SDS011;19250;42.646;26.980;2023-03-01T03:41:12;0.15;;;0.15;;
12798;SDS011;19250;42.646;26.980;2023-03-01T03:46:26;0.90;;;0.90;;
12798;SDS011;19250;42.646;26.980;2023-03-01T03:48:55;0.30;;;0.30;;
12798;SDS011;19250;42.646;26.980;2023-03-01T03:51:22;0.13;;;0.13;;
12798;SDS011;19250;42.646;26.980;2023-03-01T03:53:49;0.20;;;0.20;;
12798;SDS011;19250;42.646;26.980;2023-03-01T03:56:17;0.10;;;0.10;;
12798;SDS011;19250;42.646;26.980;2023-03-01T03:59:03;0.10;;;0.10;;
12798;SDS011;19250;42.646;26.980;2023-03-01T04:01:31;0.10;;;0.10;;
12798;SDS011;19250;42.646;26.980;2023-03-01T04:04:00;0.20;;;0.20;;
12798;SDS011;19250;42.646;26.980;2023-03-01T04:06:29;1.40;;;1.30;;
12798;SDS011;19250;42.646;26.980;2023-03-01T04:08:57;0.10;;;0.10;;
12798;SDS011;19250;42.646;26.980;2023-03-01T04:11:26;0.10;;;0.10;;
12798;SDS011;19250;42.646;26.980;2023-03-01T04:13:53;0.10;;;0.10;;
12798;SDS011;19250;42.646;26.980;2023-03-01T04:16:22;0.15;;;0.15;;
12798;SDS011;19250;42.646;26.980;2023-03-01T04:18:49;0.10;;;0.10;;
12798;SDS011;19250;42.646;26.980;2023-03-01T04:21:19;0.20;;;0.20;;
12798;SDS011;19250;42.646;26.980;2023-03-01T04:23:46;0.40;;;0.40;;
12798;SDS011;19250;42.646;26.980;2023-03-01T04:26:18;0.10;;;0.10;;
12798;SDS011;19250;42.646;26.980;2023-03-01T04:28:46;0.10;;;0.10;;
12798;SDS011;19250;42.646;26.980;2023-03-01T04:31:16;0.10;;;0.10;;
12798;SDS011;19250;42.646;26.980;2023-03-01T04:33:46;0.10;;;0.10;;
12798;SDS011;19250;42.646;26.980;2023-03-01T04:36:16;0.10;;;0.10;;
12798;SDS011;19250;42.646;26.980;2023-03-01T04:38:46;0.25;;;0.25;;
12798;SDS011;19250;42.646;26.980;2023-03-01T04:41:14;0.20;;;0.20;;
12798;SDS011;19250;42.646;26.980;2023-03-01T04:43:43;0.10;;;0.10;;
12798;SDS011;19250;42.646;26.980;2023-03-01T04:46:11;0.10;;;0.10;;
12798;SDS011;19250;42.646;26.980;2023-03-01T04:51:50;0.10;;;0.10;;
12798;SDS011;19250;42.646;26.980;2023-03-01T04:54:18;0.30;;;0.30;;
12798;SDS011;19250;42.646;26.980;2023-03-01T04:56:45;0.10;;;0.10;;
12798;SDS011;19250;42.646;26.980;2023-03-01T04:59:13;0.20;;;0.20;;
12798;SDS011;19250;42.646;26.980;2023-03-01T05:01:40;0.10;;;0.10;;
12798;SDS011;19250;42.646;26.980;2023-03-01T05:04:08;0.10;;;0.10;;
12798;SDS011;19250;42.646;26.980;2023-03-01T05:06:37;0.10;;;0.10;;
12798;SDS011;19250;42.646;26.980;2023-03-01T05:09:06;0.10;;;0.10;;
12798;SDS011;19250;42.646;26.980;2023-03-01T05:11:34;0.10;;;0.10;;
12798;SDS011;19250;42.646;26.980;2023-03-01T05:14:02;0.30;;;0.30;;
12798;SDS011;19250;42.646;26.980;2023-03-01T05:16:30;0.40;;;0.40;;
12798;SDS011;19250;42.646;26.980;2023-03-01T05:18:57;0.53;;;0.53;;
12798;SDS011;19250;42.646;26.980;2023-03-01T05:21:25;0.10;;;0.10;;
12798;SDS011;19250;42.646;26.980;2023-03-01T05:23:52;0.50;;;0.50;;
12798;SDS011;19250;42.646;26.980;2023-03-01T05:26:22;0.50;;;0.50;;
12798;SDS011;19250;42.646;26.980;2023-03-01T05:28:53;0.10;;;0.10;;
12798;SDS011;19250;42.646;26.980;2023-03-01T05:31:23;0.60;;;0.60;;
12798;SDS011;19250;42.646;26.980;2023-03-01T05:33:51;0.15;;;0.15;;
12798;SDS011;19250;42.646;26.980;2023-03-01T05:36:18;1.80;;;1.70;;
12798;SDS011;19250;42.646;26.980;2023-03-01T05:38:45;1.10;;;1.10;;
12798;SDS011;19250;42.646;26.980;2023-03-01T05:41:13;0.20;;;0.20;;
12798;SDS011;19250;42.646;26.980;2023-03-01T05:43:43;0.30;;;0.30;;
12798;SDS011;19250;42.646;26.980;2023-03-01T05:46:10;0.10;;;0.10;;
12798;SDS011;19250;42.646;26.980;2023-03-01T05:48:40;1.40;;;1.10;;
12798;SDS011;19250;42.646;26.980;2023-03-01T05:51:07;0.20;;;0.20;;
12798;SDS011;19250;42.646;26.980;2023-03-01T05:53:34;1.30;;;1.30;;
12798;SDS011;19250;42.646;26.980;2023-03-01T05:56:02;0.30;;;0.30;;
12798;SDS011;19250;42.646;26.980;2023-03-01T05:58:30;0.20;;;0.20;;
12798;SDS011;19250;42.646;26.980;2023-03-01T06:00:59;0.10;;;0.10;;
12798;SDS011;19250;42.646;26.980;2023-03-01T06:03:26;1.30;;;1.20;;
12798;SDS011;19250;42.646;26.980;2023-03-01T06:05:55;0.10;;;0.10;;
12798;SDS011;19250;42.646;26.980;2023-03-01T06:08:23;0.10;;;0.10;;
12798;SDS011;19250;42.646;26.980;2023-03-01T06:10:52;2.80;;;1.52;;
12798;SDS011;19250;42.646;26.980;2023-03-01T06:13:19;0.17;;;0.17;;
12798;SDS011;19250;42.646;26.980;2023-03-01T06:15:48;0.40;;;0.40;;
12798;SDS011;19250;42.646;26.980;2023-03-01T06:18:16;0.20;;;0.20;;
12798;SDS011;19250;42.646;26.980;2023-03-01T06:20:44;0.10;;;0.10;;
12798;SDS011;19250;42.646;26.980;2023-03-01T06:23:11;0.10;;;0.10;;
12798;SDS011;19250;42.646;26.980;2023-03-01T06:25:38;0.30;;;0.30;;
12798;SDS011;19250;42.646;26.980;2023-03-01T06:28:05;0.95;;;0.95;;
12798;SDS011;19250;42.646;26.980;2023-03-01T06:30:33;0.20;;;0.20;;
12798;SDS011;19250;42.646;26.980;2023-03-01T06:33:00;1.00;;;1.00;;
12798;SDS011;19250;42.646;26.980;2023-03-01T06:35:31;0.10;;;0.10;;
12798;SDS011;19250;42.646;26.980;2023-03-01T06:37:59;0.25;;;0.25;;
12798;SDS011;19250;42.646;26.980;2023-03-01T06:40:28;0.20;;;0.20;;
12798;SDS011;19250;42.646;26.980;2023-03-01T06:42:56;0.10;;;0.10;;
12798;SDS011;19250;42.646;26.980;2023-03-01T06:45:24;0.10;;;0.10;;
12798;SDS011;19250;42.646;26.980;2023-03-01T06:47:51;0.10;;;0.10;;
12798;SDS011;19250;42.646;26.980;2023-03-01T06:50:18;0.10;;;0.10;;
12798;SDS011;19250;42.646;26.980;2023-03-01T06:52:47;0.10;;;0.10;;
12798;SDS011;19250;42.646;26.980;2023-03-01T06:55:15;0.20;;;0.20;;
12798;SDS011;19250;42.646;26.980;2023-03-01T06:57:42;0.50;;;0.50;;
12798;SDS011;19250;42.646;26.980;2023-03-01T07:00:10;0.10;;;0.10;;
12798;SDS011;19250;42.646;26.980;2023-03-01T07:02:38;0.10;;;0.10;;
12798;SDS011;19250;42.646;26.980;2023-03-01T07:05:05;0.90;;;0.90;;
12798;SDS011;19250;42.646;26.980;2023-03-01T07:07:33;0.30;;;0.30;;
12798;SDS011;19250;42.646;26.980;2023-03-01T07:10:02;0.68;;;0.68;;
12798;SDS011;19250;42.646;26.980;2023-03-01T07:12:29;0.10;;;0.10;;
12798;SDS011;19250;42.646;26.980;2023-03-01T07:14:57;0.20;;;0.20;;
12798;SDS011;19250;42.646;26.980;2023-03-01T07:17:24;0.35;;;0.35;;
12798;SDS011;19250;42.646;26.980;2023-03-01T07:19:51;0.20;;;0.20;;
12798;SDS011;19250;42.646;26.980;2023-03-01T07:22:18;2.40;;;1.00;;
12798;SDS011;19250;42.646;26.980;2023-03-01T07:24:46;0.30;;;0.30;;
12798;SDS011;19250;42.646;26.980;2023-03-01T07:27:14;1.30;;;1.20;;
12798;SDS011;19250;42.646;26.980;2023-03-01T07:29:41;0.60;;;0.60;;
12798;SDS011;19250;42.646;26.980;2023-03-01T07:32:09;4.40;;;4.10;;
12798;SDS011;19250;42.646;26.980;2023-03-01T07:34:37;1.17;;;1.08;;
12798;SDS011;19250;42.646;26.980;2023-03-01T07:37:04;1.55;;;1.55;;
12798;SDS011;19250;42.646;26.980;2023-03-01T07:39:31;0.10;;;0.10;;
12798;SDS011;19250;42.646;26.980;2023-03-01T07:41:59;1.70;;;1.60;;
12798;SDS011;19250;42.646;26.980;2023-03-01T07:44:27;0.03;;;0.03;;
12798;SDS011;19250;42.646;26.980;2023-03-01T07:46:55;1.50;;;1.50;;
12798;SDS011;19250;42.646;26.980;2023-03-01T07:49:23;0.40;;;0.40;;
12798;SDS011;19250;42.646;26.980;2023-03-01T07:51:51;0.20;;;0.20;;
12798;SDS011;19250;42.646;26.980;2023-03-01T07:54:18;0.90;;;0.90;;
12798;SDS011;19250;42.646;26.980;2023-03-01T07:56:46;0.65;;;0.65;;
12798;SDS011;19250;42.646;26.980;2023-03-01T07:59:13;0.10;;;0.10;;
12798;SDS011;19250;42.646;26.980;2023-03-01T08:01:42;0.30;;;0.30;;
12798;SDS011;19250;42.646;26.980;2023-03-01T08:04:09;0.20;;;0.20;;
12798;SDS011;19250;42.646;26.980;2023-03-01T08:06:36;0.20;;;0.20;;
12798;SDS011;19250;42.646;26.980;2023-03-01T08:09:03;0.20;;;0.20;;
12798;SDS011;19250;42.646;26.980;2023-03-01T08:11:31;0.17;;;0.17;;
12798;SDS011;19250;42.646;26.980;2023-03-01T08:13:58;0.40;;;0.40;;
12798;SDS011;19250;42.646;26.980;2023-03-01T08:16:25;2.70;;;0.95;;
12798;SDS011;19250;42.646;26.980;2023-03-01T08:18:54;0.80;;;0.80;;
12798;SDS011;19250;42.646;26.980;2023-03-01T08:21:24;0.60;;;0.60;;
12798;SDS011;19250;42.646;26.980;2023-03-01T08:23:51;0.10;;;0.10;;
12798;SDS011;19250;42.646;26.980;2023-03-01T08:26:19;0.13;;;0.13;;
12798;SDS011;19250;42.646;26.980;2023-03-01T08:28:48;0.15;;;0.15;;
12798;SDS011;19250;42.646;26.980;2023-03-01T08:31:17;1.27;;;1.27;;
12798;SDS011;19250;42.646;26.980;2023-03-01T08:33:46;0.20;;;0.20;;
12798;SDS011;19250;42.646;26.980;2023-03-01T08:36:18;0.10;;;0.10;;
12798;SDS011;19250;42.646;26.980;2023-03-01T08:38:46;0.50;;;0.50;;
12798;SDS011;19250;42.646;26.980;2023-03-01T08:41:13;0.08;;;0.08;;
12798;SDS011;19250;42.646;26.980;2023-03-01T08:43:41;0.10;;;0.10;;
12798;SDS011;19250;42.646;26.980;2023-03-01T08:46:08;0.50;;;0.50;;
12798;SDS011;19250;42.646;26.980;2023-03-01T08:48:36;1.60;;;1.20;;
12798;SDS011;19250;42.646;26.980;2023-03-01T08:51:10;0.90;;;0.90;;
12798;SDS011;19250;42.646;26.980;2023-03-01T08:53:40;2.40;;;2.20;;
12798;SDS011;19250;42.646;26.980;2023-03-01T08:56:08;0.10;;;0.10;;
12798;SDS011;19250;42.646;26.980;2023-03-01T08:58:36;0.45;;;0.45;;
12798;SDS011;19250;42.646;26.980;2023-03-01T09:01:06;0.10;;;0.10;;
12798;SDS011;19250;42.646;26.980;2023-03-01T09:03:34;0.50;;;0.50;;
12798;SDS011;19250;42.646;26.980;2023-03-01T09:06:02;0.73;;;0.73;;
12798;SDS011;19250;42.646;26.980;2023-03-01T09:08:31;0.45;;;0.45;;
12798;SDS011;19250;42.646;26.980;2023-03-01T09:11:02;1.20;;;1.20;;
12798;SDS011;19250;42.646;26.980;2023-03-01T09:13:30;1.00;;;0.95;;
12798;SDS011;19250;42.646;26.980;2023-03-01T09:15:58;0.93;;;0.93;;
12798;SDS011;19250;42.646;26.980;2023-03-01T09:18:27;0.10;;;0.10;;
12798;SDS011;19250;42.646;26.980;2023-03-01T09:21:00;0.10;;;0.10;;
12798;SDS011;19250;42.646;26.980;2023-03-01T09:23:32;19.55;;;17.48;;
12798;SDS011;19250;42.646;26.980;2023-03-01T09:26:03;22.03;;;19.70;;
12798;SDS011;19250;42.646;26.980;2023-03-01T09:28:30;31.00;;;25.02;;
12798;SDS011;19250;42.646;26.980;2023-03-01T09:30:58;21.88;;;18.17;;
12798;SDS011;19250;42.646;26.980;2023-03-01T09:33:25;26.38;;;23.23;;
12798;SDS011;19250;42.646;26.980;2023-03-01T09:35:56;25.65;;;22.85;;
12798;SDS011;19250;42.646;26.980;2023-03-01T09:38:23;18.77;;;16.08;;
12798;SDS011;19250;42.646;26.980;2023-03-01T09:40:51;28.58;;;25.35;;
12798;SDS011;19250;42.646;26.980;2023-03-01T09:43:21;20.88;;;18.70;;
12798;SDS011;19250;42.646;26.980;2023-03-01T09:45:55;27.80;;;24.13;;
12798;SDS011;19250;42.646;26.980;2023-03-01T09:48:27;26.15;;;22.02;;
12798;SDS011;19250;42.646;26.980;2023-03-01T09:50:59;20.88;;;18.63;;
12798;SDS011;19250;42.646;26.980;2023-03-01T09:53:32;21.80;;;19.42;;
12798;SDS011;19250;42.646;26.980;2023-03-01T09:56:01;17.10;;;15.18;;
12798;SDS011;19250;42.646;26.980;2023-03-01T09:58:37;13.82;;;12.35;;
12798;SDS011;19250;42.646;26.980;2023-03-01T10:01:22;29.70;;;25.02;;
12798;SDS011;19250;42.646;26.980;2023-03-01T10:04:00;28.10;;;25.08;;
12798;SDS011;19250;42.646;26.980;2023-03-01T10:06:36;22.35;;;19.13;;
12798;SDS011;19250;42.646;26.980;2023-03-01T10:09:05;22.00;;;18.63;;
12798;SDS011;19250;42.646;26.980;2023-03-01T10:11:38;18.85;;;16.65;;
12798;SDS011;19250;42.646;26.980;2023-03-01T10:14:15;15.60;;;14.02;;
12798;SDS011;19250;42.646;26.980;2023-03-01T10:16:57;18.23;;;15.60;;
12798;SDS011;19250;42.646;26.980;2023-03-01T10:19:29;15.65;;;14.15;;
12798;SDS011;19250;42.646;26.980;2023-03-01T10:22:03;30.75;;;27.77;;
12798;SDS011;19250;42.646;26.980;2023-03-01T10:24:37;15.98;;;13.63;;
12798;SDS011;19250;42.646;26.980;2023-03-01T10:27:05;23.67;;;21.23;;
12798;SDS011;19250;42.646;26.980;2023-03-01T10:29:39;17.73;;;15.93;;
12798;SDS011;19250;42.646;26.980;2023-03-01T10:32:11;22.25;;;20.02;;
12798;SDS011;19250;42.646;26.980;2023-03-01T10:34:39;23.98;;;21.50;;
12798;SDS011;19250;42.646;26.980;2023-03-01T10:37:10;20.83;;;18.17;;
12798;SDS011;19250;42.646;26.980;2023-03-01T10:39:54;13.10;;;11.75;;
12798;SDS011;19250;42.646;26.980;2023-03-01T10:42:25;13.95;;;12.02;;
12798;SDS011;19250;42.646;26.980;2023-03-01T10:44:56;16.77;;;14.97;;
12798;SDS011;19250;42.646;26.980;2023-03-01T10:47:25;22.25;;;19.83;;
12798;SDS011;19250;42.646;26.980;2023-03-01T10:49:54;18.50;;;15.77;;
12798;SDS011;19250;42.646;26.980;2023-03-01T10:52:26;15.32;;;13.73;;
12798;SDS011;19250;42.646;26.980;2023-03-01T10:54:56;18.27;;;15.50;;
12798;SDS011;19250;42.646;26.980;2023-03-01T10:57:28;21.23;;;19.00;;
12798;SDS011;19250;42.646;26.980;2023-03-01T11:00:10;25.48;;;19.67;;
12798;SDS011;19250;42.646;26.980;2023-03-01T11:02:49;19.40;;;17.35;;
12798;SDS011;19250;42.646;26.980;2023-03-01T11:05:21;21.05;;;18.13;;
12798;SDS011;19250;42.646;26.980;2023-03-01T11:07:51;18.15;;;14.43;;
12798;SDS011;19250;42.646;26.980;2023-03-01T11:10:22;18.45;;;15.43;;
12798;SDS011;19250;42.646;26.980;2023-03-01T11:12:51;24.80;;;18.97;;
12798;SDS011;19250;42.646;26.980;2023-03-01T11:15:24;20.73;;;16.83;;
12798;SDS011;19250;42.646;26.980;2023-03-01T11:17:53;32.00;;;24.08;;
12798;SDS011;19250;42.646;26.980;2023-03-01T11:20:25;18.13;;;15.55;;
12798;SDS011;19250;42.646;26.980;2023-03-01T11:22:56;20.27;;;17.17;;
12798;SDS011;19250;42.646;26.980;2023-03-01T11:25:28;21.45;;;17.00;;
12798;SDS011;19250;42.646;26.980;2023-03-01T11:27:59;48.28;;;43.60;;
12798;SDS011;19250;42.646;26.980;2023-03-01T11:30:32;32.05;;;24.55;;
12798;SDS011;19250;42.646;26.980;2023-03-01T11:33:16;27.08;;;22.70;;
12798;SDS011;19250;42.646;26.980;2023-03-01T11:35:49;27.80;;;21.35;;
12798;SDS011;19250;42.646;26.980;2023-03-01T11:38:24;26.20;;;21.23;;
12798;SDS011;19250;42.646;26.980;2023-03-01T11:40:54;26.65;;;20.00;;
12798;SDS011;19250;42.646;26.980;2023-03-01T11:43:32;21.88;;;18.73;;
12798;SDS011;19250;42.646;26.980;2023-03-01T11:46:19;36.28;;;24.05;;
12798;SDS011;19250;42.646;26.980;2023-03-01T11:52:09;19.63;;;17.48;;
12798;SDS011;19250;42.646;26.980;2023-03-01T11:54:49;21.90;;;16.88;;
12798;SDS011;19250;42.646;26.980;2023-03-01T11:57:30;20.73;;;16.50;;
12798;SDS011;19250;42.646;26.980;2023-03-01T12:00:19;17.17;;;14.45;;
12798;SDS011;19250;42.646;26.980;2023-03-01T12:06:00;19.27;;;16.00;;
12798;SDS011;19250;42.646;26.980;2023-03-01T12:08:53;21.60;;;16.48;;
12798;SDS011;19250;42.646;26.980;2023-03-01T12:11:32;26.95;;;22.33;;
12798;SDS011;19250;42.646;26.980;2023-03-01T12:17:19;25.45;;;21.75;;
12798;SDS011;19250;42.646;26.980;2023-03-01T12:20:05;26.23;;;22.63;;
12798;SDS011;19250;42.646;26.980;2023-03-01T12:22:46;21.65;;;19.00;;
12798;SDS011;19250;42.646;26.980;2023-03-01T12:25:31;20.98;;;18.40;;
12798;SDS011;19250;42.646;26.980;2023-03-01T12:28:13;21.70;;;18.95;;
12798;SDS011;19250;42.646;26.980;2023-03-01T12:34:05;27.77;;;24.90;;
12798;SDS011;19250;42.646;26.980;2023-03-01T12:36:58;37.92;;;34.03;;
12798;SDS011;19250;42.646;26.980;2023-03-01T12:39:45;27.03;;;24.13;;
12798;SDS011;19250;42.646;26.980;2023-03-01T12:42:22;30.07;;;24.87;;
12798;SDS011;19250;42.646;26.980;2023-03-01T12:45:02;23.70;;;18.75;;
12798;SDS011;19250;42.646;26.980;2023-03-01T12:47:52;30.52;;;20.80;;
12798;SDS011;19250;42.646;26.980;2023-03-01T12:50:40;35.88;;;31.20;;
12798;SDS011;19250;42.646;26.980;2023-03-01T12:53:19;40.30;;;31.33;;
12798;SDS011;19250;42.646;26.980;2023-03-01T12:55:50;27.37;;;24.20;;
12798;SDS011;19250;42.646;26.980;2023-03-01T12:58:23;26.27;;;22.25;;
12798;SDS011;19250;42.646;26.980;2023-03-01T13:01:00;25.55;;;21.83;;
12798;SDS011;19250;42.646;26.980;2023-03-01T13:03:53;28.85;;;23.42;;
12798;SDS011;19250;42.646;26.980;2023-03-01T13:06:32;28.55;;;25.50;;
12798;SDS011;19250;42.646;26.980;2023-03-01T13:09:10;31.92;;;26.58;;
12798;SDS011;19250;42.646;26.980;2023-03-01T13:11:43;22.85;;;19.27;;
12798;SDS011;19250;42.646;26.980;2023-03-01T13:17:03;28.97;;;24.20;;
12798;SDS011;19250;42.646;26.980;2023-03-01T13:20:00;29.98;;;25.15;;
12798;SDS011;19250;42.646;26.980;2023-03-01T13:22:30;28.63;;;23.95;;
12798;SDS011;19250;42.646;26.980;2023-03-01T13:25:11;34.38;;;26.20;;
12798;SDS011;19250;42.646;26.980;2023-03-01T13:27:41;29.17;;;23.50;;
12798;SDS011;19250;42.646;26.980;2023-03-01T13:36:07;34.53;;;28.95;;
12798;SDS011;19250;42.646;26.980;2023-03-01T13:38:38;36.25;;;28.67;;
12798;SDS011;19250;42.646;26.980;2023-03-01T13:41:13;31.17;;;27.80;;
12798;SDS011;19250;42.646;26.980;2023-03-01T13:43:42;29.90;;;25.73;;
12798;SDS011;19250;42.646;26.980;2023-03-01T13:46:15;34.97;;;31.20;;
12798;SDS011;19250;42.646;26.980;2023-03-01T13:48:47;33.45;;;25.20;;
12798;SDS011;19250;42.646;26.980;2023-03-01T13:51:20;34.00;;;26.02;;
12798;SDS011;19250;42.646;26.980;2023-03-01T13:53:50;37.00;;;28.73;;
12798;SDS011;19250;42.646;26.980;2023-03-01T13:56:23;33.35;;;27.02;;
12798;SDS011;19250;42.646;26.980;2023-03-01T13:58:53;28.08;;;24.17;;
12798;SDS011;19250;42.646;26.980;2023-03-01T14:01:27;38.10;;;32.30;;
12798;SDS011;19250;42.646;26.980;2023-03-01T14:03:55;31.70;;;25.00;;
12798;SDS011;19250;42.646;26.980;2023-03-01T14:06:23;30.23;;;22.83;;
12798;SDS011;19250;42.646;26.980;2023-03-01T14:09:00;33.47;;;27.17;;
12798;SDS011;19250;42.646;26.980;2023-03-01T14:14:41;42.88;;;34.08;;
12798;SDS011;19250;42.646;26.980;2023-03-01T14:17:16;42.30;;;35.92;;
12798;SDS011;19250;42.646;26.980;2023-03-01T14:20:02;42.65;;;33.95;;
12798;SDS011;19250;42.646;26.980;2023-03-01T14:22:38;34.00;;;27.85;;
12798;SDS011;19250;42.646;26.980;2023-03-01T14:25:17;31.27;;;25.63;;
12798;SDS011;19250;42.646;26.980;2023-03-01T14:27:51;31.17;;;25.95;;
12798;SDS011;19250;42.646;26.980;2023-03-01T14:30:24;35.35;;;29.30;;
12798;SDS011;19250;42.646;26.980;2023-03-01T14:32:54;38.35;;;30.85;;
12798;SDS011;19250;42.646;26.980;2023-03-01T14:35:24;37.33;;;31.52;;
12798;SDS011;19250;42.646;26.980;2023-03-01T14:37:52;38.45;;;33.60;;
12798;SDS011;19250;42.646;26.980;2023-03-01T14:40:23;43.95;;;35.53;;
12798;SDS011;19250;42.646;26.980;2023-03-01T14:42:52;44.27;;;34.73;;
12798;SDS011;19250;42.646;26.980;2023-03-01T14:45:21;53.87;;;43.53;;
12798;SDS011;19250;42.646;26.980;2023-03-01T14:47:52;35.03;;;27.88;;
12798;SDS011;19250;42.646;26.980;2023-03-01T14:50:24;34.38;;;27.10;;
12798;SDS011;19250;42.646;26.980;2023-03-01T14:52:54;30.63;;;25.83;;
12798;SDS011;19250;42.646;26.980;2023-03-01T14:55:25;36.33;;;29.90;;
12798;SDS011;19250;42.646;26.980;2023-03-01T14:57:56;33.20;;;27.15;;
12798;SDS011;19250;42.646;26.980;2023-03-01T15:00:26;31.25;;;25.77;;
12798;SDS011;19250;42.646;26.980;2023-03-01T15:02:56;36.13;;;28.05;;
12798;SDS011;19250;42.646;26.980;2023-03-01T15:05:28;37.97;;;28.48;;
12798;SDS011;19250;42.646;26.980;2023-03-01T15:07:59;36.78;;;28.05;;
12798;SDS011;19250;42.646;26.980;2023-03-01T15:10:31;37.95;;;30.33;;
12798;SDS011;19250;42.646;26.980;2023-03-01T15:13:11;41.30;;;33.45;;
12798;SDS011;19250;42.646;26.980;2023-03-01T15:15:49;42.63;;;33.03;;
12798;SDS011;19250;42.646;26.980;2023-03-01T15:18:21;41.15;;;29.45;;
12798;SDS011;19250;42.646;26.980;2023-03-01T15:20:52;43.38;;;32.45;;
12798;SDS011;19250;42.646;26.980;2023-03-01T15:23:23;49.00;;;39.22;;